ESNZ

Östersund Airport

Östersund, Sweden
METAR ESNZ 231250Z 35007KT 320V030 9999 FEW027 BKN035 18/12 Q1012
Observed Flight Rules
Jul-23 @ 12:50 UTC (23 minutes ago) Visual Flight Rules
Wind Visibility Clouds
350° at 7 knots 10,000+ meters
  • Few at 2,700' AGL
  • Broken at 3,500' AGL
Temperatures Readings
Current 18°C / 64°F
Dewpoint 12°C / 54°F
Humidity 68%
Altimeter 29.88" Hg
Pressure 1012 hPa
Elevation 370
METAR ESNZ 231250Z 35007KT 320V030 9999 FEW027 BKN035 18/12 Q1012
Observed Flight Rules
Jul-23 @ 12:50 UTC
(23 minutes ago)
VFR
Wind Visibility
350° at 7 knots 10,000+ meters
Clouds
  • Few at 2,700' AGL
  • Broken at 3,500' AGL
Temperature Dewpoint
18°C / 64°F 12°C / 54°F
Humidity Altimeter Pressure
68% 29.88" Hg 1012 hPa